sensor_id;sensor_type;location;lat;lon;timestamp;temperature;humidity
1355;DHT22;671;48.972;9.276;2023-08-07T00:01:16;13.20;99.90
1355;DHT22;671;48.972;9.276;2023-08-07T00:03:42;13.20;99.90
1355;DHT22;671;48.972;9.276;2023-08-07T00:06:09;13.20;99.90
1355;DHT22;671;48.972;9.276;2023-08-07T00:08:35;13.20;99.90
1355;DHT22;671;48.972;9.276;2023-08-07T00:11:08;13.20;99.90
1355;DHT22;671;48.972;9.276;2023-08-07T00:13:34;13.20;99.90
1355;DHT22;671;48.972;9.276;2023-08-07T00:16:01;13.20;99.90
1355;DHT22;671;48.972;9.276;2023-08-07T00:18:29;13.20;99.90
1355;DHT22;671;48.972;9.276;2023-08-07T00:20:55;13.20;99.90
1355;DHT22;671;48.972;9.276;2023-08-07T00:23:22;13.20;99.90
1355;DHT22;671;48.972;9.276;2023-08-07T00:25:48;13.20;99.90
1355;DHT22;671;48.972;9.276;2023-08-07T00:28:15;13.20;99.90
1355;DHT22;671;48.972;9.276;2023-08-07T00:30:41;13.20;99.90
1355;DHT22;671;48.972;9.276;2023-08-07T00:33:08;13.20;99.90
1355;DHT22;671;48.972;9.276;2023-08-07T00:35:34;13.20;99.90
1355;DHT22;671;48.972;9.276;2023-08-07T00:38:01;13.20;99.90
1355;DHT22;671;48.972;9.276;2023-08-07T00:40:27;13.20;99.90
1355;DHT22;671;48.972;9.276;2023-08-07T00:42:54;13.30;99.90
1355;DHT22;671;48.972;9.276;2023-08-07T00:45:20;13.30;99.90
1355;DHT22;671;48.972;9.276;2023-08-07T00:47:47;13.30;99.90
1355;DHT22;671;48.972;9.276;2023-08-07T00:50:14;13.30;99.90
1355;DHT22;671;48.972;9.276;2023-08-07T00:52:41;13.30;99.90
1355;DHT22;671;48.972;9.276;2023-08-07T00:55:08;13.30;99.90
1355;DHT22;671;48.972;9.276;2023-08-07T00:57:34;13.30;99.90
1355;DHT22;671;48.972;9.276;2023-08-07T01:00:01;13.30;99.90
1355;DHT22;671;48.972;9.276;2023-08-07T01:02:29;13.30;99.90
1355;DHT22;671;48.972;9.276;2023-08-07T01:04:55;13.30;99.90
1355;DHT22;671;48.972;9.276;2023-08-07T01:07:22;13.30;99.90
1355;DHT22;671;48.972;9.276;2023-08-07T01:09:48;13.30;99.90
1355;DHT22;671;48.972;9.276;2023-08-07T01:12:28;13.30;99.90
1355;DHT22;671;48.972;9.276;2023-08-07T01:15:10;13.30;99.90
1355;DHT22;671;48.972;9.276;2023-08-07T01:17:39;13.30;99.90
1355;DHT22;671;48.972;9.276;2023-08-07T01:20:06;13.30;99.90
1355;DHT22;671;48.972;9.276;2023-08-07T01:22:33;13.30;99.90
1355;DHT22;671;48.972;9.276;2023-08-07T01:24:59;13.30;99.90
1355;DHT22;671;48.972;9.276;2023-08-07T01:32:47;13.30;99.90
1355;DHT22;671;48.972;9.276;2023-08-07T01:35:16;13.30;99.90
1355;DHT22;671;48.972;9.276;2023-08-07T01:37:45;13.30;99.90
1355;DHT22;671;48.972;9.276;2023-08-07T01:40:13;13.30;99.90
1355;DHT22;671;48.972;9.276;2023-08-07T01:42:40;13.40;99.90
1355;DHT22;671;48.972;9.276;2023-08-07T01:45:07;13.40;99.90
1355;DHT22;671;48.972;9.276;2023-08-07T01:47:34;13.40;99.90
1355;DHT22;671;48.972;9.276;2023-08-07T01:50:00;13.30;99.90
1355;DHT22;671;48.972;9.276;2023-08-07T01:52:27;13.30;99.90
1355;DHT22;671;48.972;9.276;2023-08-07T01:54:54;13.30;99.90
1355;DHT22;671;48.972;9.276;2023-08-07T01:57:20;13.30;99.90
1355;DHT22;671;48.972;9.276;2023-08-07T01:59:47;13.30;99.90
1355;DHT22;671;48.972;9.276;2023-08-07T02:02:13;13.30;99.90
1355;DHT22;671;48.972;9.276;2023-08-07T02:04:40;13.30;99.90
1355;DHT22;671;48.972;9.276;2023-08-07T02:07:06;13.30;99.90
1355;DHT22;671;48.972;9.276;2023-08-07T02:09:33;13.30;99.90
1355;DHT22;671;48.972;9.276;2023-08-07T02:11:59;13.30;99.90
1355;DHT22;671;48.972;9.276;2023-08-07T02:14:26;13.30;99.90
1355;DHT22;671;48.972;9.276;2023-08-07T02:16:52;13.40;99.90
1355;DHT22;671;48.972;9.276;2023-08-07T02:19:18;13.30;99.90
1355;DHT22;671;48.972;9.276;2023-08-07T02:21:45;13.40;99.90
1355;DHT22;671;48.972;9.276;2023-08-07T02:24:11;13.30;99.90
1355;DHT22;671;48.972;9.276;2023-08-07T02:26:39;13.30;99.90
1355;DHT22;671;48.972;9.276;2023-08-07T02:29:06;13.30;99.90
1355;DHT22;671;48.972;9.276;2023-08-07T02:31:35;13.20;99.90
1355;DHT22;671;48.972;9.276;2023-08-07T02:34:01;13.30;99.90
1355;DHT22;671;48.972;9.276;2023-08-07T02:36:28;13.20;99.90
1355;DHT22;671;48.972;9.276;2023-08-07T02:38:54;13.20;99.90
1355;DHT22;671;48.972;9.276;2023-08-07T02:41:21;13.20;99.90
1355;DHT22;671;48.972;9.276;2023-08-07T02:43:47;13.20;99.90
1355;DHT22;671;48.972;9.276;2023-08-07T02:46:14;13.20;99.90
1355;DHT22;671;48.972;9.276;2023-08-07T02:48:40;13.10;99.90
1355;DHT22;671;48.972;9.276;2023-08-07T02:51:07;13.10;99.90
1355;DHT22;671;48.972;9.276;2023-08-07T02:53:33;13.10;99.90
1355;DHT22;671;48.972;9.276;2023-08-07T02:56:00;13.10;99.90
1355;DHT22;671;48.972;9.276;2023-08-07T02:58:26;13.10;99.90
1355;DHT22;671;48.972;9.276;2023-08-07T03:00:53;13.10;99.90
1355;DHT22;671;48.972;9.276;2023-08-07T03:03:19;13.10;99.90
1355;DHT22;671;48.972;9.276;2023-08-07T03:05:50;13.10;99.90
1355;DHT22;671;48.972;9.276;2023-08-07T03:08:17;13.10;99.90
1355;DHT22;671;48.972;9.276;2023-08-07T03:10:54;13.10;99.90
1355;DHT22;671;48.972;9.276;2023-08-07T03:13:22;13.20;99.90
1355;DHT22;671;48.972;9.276;2023-08-07T03:15:49;13.10;99.90
1355;DHT22;671;48.972;9.276;2023-08-07T03:18:16;13.10;99.90
1355;DHT22;671;48.972;9.276;2023-08-07T03:20:43;13.10;99.90
1355;DHT22;671;48.972;9.276;2023-08-07T03:23:10;13.10;99.90
1355;DHT22;671;48.972;9.276;2023-08-07T03:25:37;13.10;99.90
1355;DHT22;671;48.972;9.276;2023-08-07T03:28:04;13.10;99.90
1355;DHT22;671;48.972;9.276;2023-08-07T03:30:30;13.10;99.90
1355;DHT22;671;48.972;9.276;2023-08-07T03:32:56;13.10;99.90
1355;DHT22;671;48.972;9.276;2023-08-07T03:35:23;13.10;99.90
1355;DHT22;671;48.972;9.276;2023-08-07T03:37:49;13.10;99.90
1355;DHT22;671;48.972;9.276;2023-08-07T03:40:17;13.10;99.90
1355;DHT22;671;48.972;9.276;2023-08-07T03:42:43;13.10;99.90
1355;DHT22;671;48.972;9.276;2023-08-07T03:45:10;13.10;99.90
1355;DHT22;671;48.972;9.276;2023-08-07T03:47:36;13.10;99.90
1355;DHT22;671;48.972;9.276;2023-08-07T03:50:03;13.10;99.90
1355;DHT22;671;48.972;9.276;2023-08-07T03:52:30;13.10;99.90
1355;DHT22;671;48.972;9.276;2023-08-07T03:54:56;13.10;99.90
1355;DHT22;671;48.972;9.276;2023-08-07T03:57:23;13.10;99.90
1355;DHT22;671;48.972;9.276;2023-08-07T03:59:49;13.10;99.90
1355;DHT22;671;48.972;9.276;2023-08-07T04:02:16;13.10;99.90
1355;DHT22;671;48.972;9.276;2023-08-07T04:04:42;13.20;99.90
1355;DHT22;671;48.972;9.276;2023-08-07T04:07:09;13.10;99.90
1355;DHT22;671;48.972;9.276;2023-08-07T04:09:35;13.10;99.90
1355;DHT22;671;48.972;9.276;2023-08-07T04:12:02;13.20;99.90
1355;DHT22;671;48.972;9.276;2023-08-07T04:14:28;13.20;99.90
1355;DHT22;671;48.972;9.276;2023-08-07T04:16:55;13.20;99.90
1355;DHT22;671;48.972;9.276;2023-08-07T04:19:21;13.10;99.90
1355;DHT22;671;48.972;9.276;2023-08-07T04:21:47;13.10;99.90
1355;DHT22;671;48.972;9.276;2023-08-07T04:24:14;13.10;99.90
1355;DHT22;671;48.972;9.276;2023-08-07T04:26:40;13.20;99.90
1355;DHT22;671;48.972;9.276;2023-08-07T04:29:07;13.10;99.90
1355;DHT22;671;48.972;9.276;2023-08-07T04:31:33;13.10;99.90
1355;DHT22;671;48.972;9.276;2023-08-07T04:34:00;13.10;99.90
1355;DHT22;671;48.972;9.276;2023-08-07T04:36:27;13.10;99.90
1355;DHT22;671;48.972;9.276;2023-08-07T04:38:52;13.10;99.90
1355;DHT22;671;48.972;9.276;2023-08-07T04:41:21;13.10;99.90
1355;DHT22;671;48.972;9.276;2023-08-07T04:43:46;13.10;99.90
1355;DHT22;671;48.972;9.276;2023-08-07T04:46:14;13.10;99.90
1355;DHT22;671;48.972;9.276;2023-08-07T04:48:40;13.10;99.90
1355;DHT22;671;48.972;9.276;2023-08-07T04:51:07;13.10;99.90
1355;DHT22;671;48.972;9.276;2023-08-07T04:53:33;13.10;99.90
1355;DHT22;671;48.972;9.276;2023-08-07T04:56:00;13.10;99.90
1355;DHT22;671;48.972;9.276;2023-08-07T04:58:27;13.10;99.90
1355;DHT22;671;48.972;9.276;2023-08-07T05:00:57;13.20;99.90
1355;DHT22;671;48.972;9.276;2023-08-07T05:03:24;13.20;99.90
1355;DHT22;671;48.972;9.276;2023-08-07T05:05:51;13.20;99.90
1355;DHT22;671;48.972;9.276;2023-08-07T05:08:23;13.20;99.90
1355;DHT22;671;48.972;9.276;2023-08-07T05:10:50;13.30;99.90
1355;DHT22;671;48.972;9.276;2023-08-07T05:13:16;13.30;99.90
1355;DHT22;671;48.972;9.276;2023-08-07T05:15:43;13.30;99.90
1355;DHT22;671;48.972;9.276;2023-08-07T05:18:09;13.40;99.90
1355;DHT22;671;48.972;9.276;2023-08-07T05:20:36;13.30;99.90
1355;DHT22;671;48.972;9.276;2023-08-07T05:23:02;13.30;99.90
1355;DHT22;671;48.972;9.276;2023-08-07T05:25:29;13.30;99.90
1355;DHT22;671;48.972;9.276;2023-08-07T05:27:55;13.30;99.90
1355;DHT22;671;48.972;9.276;2023-08-07T05:30:22;13.40;99.90
1355;DHT22;671;48.972;9.276;2023-08-07T05:32:48;13.40;99.90
1355;DHT22;671;48.972;9.276;2023-08-07T05:35:15;13.40;99.90
1355;DHT22;671;48.972;9.276;2023-08-07T05:37:41;13.40;99.90
1355;DHT22;671;48.972;9.276;2023-08-07T05:40:08;13.40;99.90
1355;DHT22;671;48.972;9.276;2023-08-07T05:42:38;13.50;99.90
1355;DHT22;671;48.972;9.276;2023-08-07T05:45:05;13.50;99.90
1355;DHT22;671;48.972;9.276;2023-08-07T05:47:32;13.50;99.90
1355;DHT22;671;48.972;9.276;2023-08-07T05:49:58;13.60;99.90
1355;DHT22;671;48.972;9.276;2023-08-07T05:52:25;13.60;99.90
1355;DHT22;671;48.972;9.276;2023-08-07T05:54:51;13.60;99.90
1355;DHT22;671;48.972;9.276;2023-08-07T05:57:18;13.60;99.90
1355;DHT22;671;48.972;9.276;2023-08-07T05:59:45;13.70;99.90
1355;DHT22;671;48.972;9.276;2023-08-07T06:02:11;13.70;99.90
1355;DHT22;671;48.972;9.276;2023-08-07T06:04:38;13.80;99.90
1355;DHT22;671;48.972;9.276;2023-08-07T06:07:05;13.80;99.90
1355;DHT22;671;48.972;9.276;2023-08-07T06:09:32;13.80;99.90
1355;DHT22;671;48.972;9.276;2023-08-07T06:11:59;13.90;99.90
1355;DHT22;671;48.972;9.276;2023-08-07T06:14:26;14.00;99.90
1355;DHT22;671;48.972;9.276;2023-08-07T06:16:52;14.00;99.90
1355;DHT22;671;48.972;9.276;2023-08-07T06:19:19;14.10;99.90
1355;DHT22;671;48.972;9.276;2023-08-07T06:21:48;14.20;99.90
1355;DHT22;671;48.972;9.276;2023-08-07T06:24:15;14.20;99.90
1355;DHT22;671;48.972;9.276;2023-08-07T06:26:41;14.30;99.90
1355;DHT22;671;48.972;9.276;2023-08-07T06:29:07;14.40;99.90
1355;DHT22;671;48.972;9.276;2023-08-07T06:31:34;14.50;99.90
1355;DHT22;671;48.972;9.276;2023-08-07T06:34:01;14.50;99.90
1355;DHT22;671;48.972;9.276;2023-08-07T06:36:27;14.60;99.90
1355;DHT22;671;48.972;9.276;2023-08-07T06:38:55;14.70;99.90
1355;DHT22;671;48.972;9.276;2023-08-07T06:41:21;14.80;99.90
1355;DHT22;671;48.972;9.276;2023-08-07T06:43:48;14.80;99.90
1355;DHT22;671;48.972;9.276;2023-08-07T06:46:16;14.90;99.90
1355;DHT22;671;48.972;9.276;2023-08-07T06:48:42;14.90;99.90
1355;DHT22;671;48.972;9.276;2023-08-07T06:51:09;15.00;99.90
1355;DHT22;671;48.972;9.276;2023-08-07T06:53:35;15.10;99.90
1355;DHT22;671;48.972;9.276;2023-08-07T06:56:01;15.20;99.90
1355;DHT22;671;48.972;9.276;2023-08-07T06:58:28;15.30;99.90
1355;DHT22;671;48.972;9.276;2023-08-07T07:00:55;15.40;99.90
1355;DHT22;671;48.972;9.276;2023-08-07T07:03:21;15.50;99.90
1355;DHT22;671;48.972;9.276;2023-08-07T07:05:49;15.50;99.90
1355;DHT22;671;48.972;9.276;2023-08-07T07:08:16;15.40;99.90
1355;DHT22;671;48.972;9.276;2023-08-07T07:10:42;15.30;99.90
1355;DHT22;671;48.972;9.276;2023-08-07T07:13:09;15.30;99.90
1355;DHT22;671;48.972;9.276;2023-08-07T07:15:36;15.20;99.90
1355;DHT22;671;48.972;9.276;2023-08-07T07:18:02;15.20;99.90
1355;DHT22;671;48.972;9.276;2023-08-07T07:20:29;15.20;99.90
1355;DHT22;671;48.972;9.276;2023-08-07T07:22:55;15.10;99.90
1355;DHT22;671;48.972;9.276;2023-08-07T07:25:22;15.00;99.90
1355;DHT22;671;48.972;9.276;2023-08-07T07:27:48;14.90;99.90
1355;DHT22;671;48.972;9.276;2023-08-07T07:30:15;14.90;99.90
1355;DHT22;671;48.972;9.276;2023-08-07T07:32:41;14.90;99.90
1355;DHT22;671;48.972;9.276;2023-08-07T07:35:08;14.90;99.90
1355;DHT22;671;48.972;9.276;2023-08-07T07:37:35;14.90;99.90
1355;DHT22;671;48.972;9.276;2023-08-07T07:40:01;14.90;99.90
1355;DHT22;671;48.972;9.276;2023-08-07T07:42:28;15.00;99.90
1355;DHT22;671;48.972;9.276;2023-08-07T07:44:55;15.00;99.90
1355;DHT22;671;48.972;9.276;2023-08-07T07:47:21;15.00;99.90
1355;DHT22;671;48.972;9.276;2023-08-07T07:49:48;15.00;99.90
1355;DHT22;671;48.972;9.276;2023-08-07T07:52:15;15.00;99.90
1355;DHT22;671;48.972;9.276;2023-08-07T07:54:41;15.10;99.90
1355;DHT22;671;48.972;9.276;2023-08-07T07:57:08;15.10;99.90
1355;DHT22;671;48.972;9.276;2023-08-07T07:59:35;15.10;99.90
1355;DHT22;671;48.972;9.276;2023-08-07T08:02:01;15.20;99.90
1355;DHT22;671;48.972;9.276;2023-08-07T08:04:28;15.30;99.90
1355;DHT22;671;48.972;9.276;2023-08-07T08:06:54;15.30;99.90
1355;DHT22;671;48.972;9.276;2023-08-07T08:09:21;15.40;99.90
1355;DHT22;671;48.972;9.276;2023-08-07T08:11:47;15.40;99.90
1355;DHT22;671;48.972;9.276;2023-08-07T08:14:14;15.50;99.90
1355;DHT22;671;48.972;9.276;2023-08-07T08:16:40;15.60;99.90
1355;DHT22;671;48.972;9.276;2023-08-07T08:19:07;15.60;99.90
1355;DHT22;671;48.972;9.276;2023-08-07T08:21:35;15.80;99.90
1355;DHT22;671;48.972;9.276;2023-08-07T08:24:02;16.00;99.90
1355;DHT22;671;48.972;9.276;2023-08-07T08:26:29;16.20;99.90
1355;DHT22;671;48.972;9.276;2023-08-07T08:28:55;16.20;99.90
1355;DHT22;671;48.972;9.276;2023-08-07T08:31:22;16.40;99.90
1355;DHT22;671;48.972;9.276;2023-08-07T08:33:50;16.50;99.90
1355;DHT22;671;48.972;9.276;2023-08-07T08:36:16;16.50;99.90
1355;DHT22;671;48.972;9.276;2023-08-07T08:38:44;16.70;99.90
1355;DHT22;671;48.972;9.276;2023-08-07T08:41:12;16.80;99.90
1355;DHT22;671;48.972;9.276;2023-08-07T08:43:40;16.80;99.90
1355;DHT22;671;48.972;9.276;2023-08-07T08:46:08;17.00;99.90
1355;DHT22;671;48.972;9.276;2023-08-07T08:48:38;17.20;99.90
1355;DHT22;671;48.972;9.276;2023-08-07T08:51:05;17.20;99.90
1355;DHT22;671;48.972;9.276;2023-08-07T08:53:32;17.20;99.90
1355;DHT22;671;48.972;9.276;2023-08-07T08:56:00;17.30;99.90
1355;DHT22;671;48.972;9.276;2023-08-07T08:58:28;17.30;99.90
1355;DHT22;671;48.972;9.276;2023-08-07T09:00:55;17.30;99.90
1355;DHT22;671;48.972;9.276;2023-08-07T09:03:21;17.40;99.90
1355;DHT22;671;48.972;9.276;2023-08-07T09:05:49;17.50;99.90
1355;DHT22;671;48.972;9.276;2023-08-07T09:08:16;17.60;99.90
1355;DHT22;671;48.972;9.276;2023-08-07T09:10:43;17.60;99.90
1355;DHT22;671;48.972;9.276;2023-08-07T09:13:14;17.40;99.90
1355;DHT22;671;48.972;9.276;2023-08-07T09:15:41;17.60;99.90
1355;DHT22;671;48.972;9.276;2023-08-07T09:18:14;17.70;99.90
1355;DHT22;671;48.972;9.276;2023-08-07T09:20:41;17.70;99.90
1355;DHT22;671;48.972;9.276;2023-08-07T09:23:08;17.70;99.90
1355;DHT22;671;48.972;9.276;2023-08-07T09:25:35;17.90;99.90
1355;DHT22;671;48.972;9.276;2023-08-07T09:28:03;18.00;99.90
1355;DHT22;671;48.972;9.276;2023-08-07T09:30:36;18.10;99.90
1355;DHT22;671;48.972;9.276;2023-08-07T09:33:08;18.30;99.90
1355;DHT22;671;48.972;9.276;2023-08-07T09:35:34;18.40;99.90
1355;DHT22;671;48.972;9.276;2023-08-07T09:38:01;18.50;99.90
1355;DHT22;671;48.972;9.276;2023-08-07T09:40:29;18.60;99.90
1355;DHT22;671;48.972;9.276;2023-08-07T09:42:57;18.80;99.90
1355;DHT22;671;48.972;9.276;2023-08-07T09:45:27;18.90;99.90
1355;DHT22;671;48.972;9.276;2023-08-07T09:48:01;19.00;99.90
1355;DHT22;671;48.972;9.276;2023-08-07T09:50:28;19.00;99.90
1355;DHT22;671;48.972;9.276;2023-08-07T09:52:56;19.00;99.90
1355;DHT22;671;48.972;9.276;2023-08-07T09:55:24;19.00;99.90
1355;DHT22;671;48.972;9.276;2023-08-07T09:57:51;19.10;99.90
1355;DHT22;671;48.972;9.276;2023-08-07T10:00:18;19.20;99.90
1355;DHT22;671;48.972;9.276;2023-08-07T10:02:47;19.30;99.90
1355;DHT22;671;48.972;9.276;2023-08-07T10:05:14;19.50;99.90
1355;DHT22;671;48.972;9.276;2023-08-07T10:07:42;19.60;99.90
1355;DHT22;671;48.972;9.276;2023-08-07T10:10:09;19.70;99.90
1355;DHT22;671;48.972;9.276;2023-08-07T10:12:37;19.60;99.90
1355;DHT22;671;48.972;9.276;2023-08-07T10:15:05;19.50;99.90
1355;DHT22;671;48.972;9.276;2023-08-07T10:17:32;19.50;99.90
1355;DHT22;671;48.972;9.276;2023-08-07T10:19:59;19.60;99.90
1355;DHT22;671;48.972;9.276;2023-08-07T10:22:29;19.60;99.90
1355;DHT22;671;48.972;9.276;2023-08-07T10:24:58;19.70;99.90
1355;DHT22;671;48.972;9.276;2023-08-07T10:27:30;19.60;99.90
1355;DHT22;671;48.972;9.276;2023-08-07T10:30:00;19.50;99.90
1355;DHT22;671;48.972;9.276;2023-08-07T10:32:28;19.40;99.90
1355;DHT22;671;48.972;9.276;2023-08-07T10:34:54;19.30;99.90
1355;DHT22;671;48.972;9.276;2023-08-07T10:37:51;19.40;99.90
1355;DHT22;671;48.972;9.276;2023-08-07T10:40:18;19.40;99.90
1355;DHT22;671;48.972;9.276;2023-08-07T10:45:27;19.60;99.90
1355;DHT22;671;48.972;9.276;2023-08-07T10:48:12;19.40;99.90
1355;DHT22;671;48.972;9.276;2023-08-07T10:50:57;19.20;99.90
1355;DHT22;671;48.972;9.276;2023-08-07T10:56:03;18.90;99.90
1355;DHT22;671;48.972;9.276;2023-08-07T10:58:32;18.70;99.90
1355;DHT22;671;48.972;9.276;2023-08-07T11:01:19;18.50;99.90
1355;DHT22;671;48.972;9.276;2023-08-07T11:03:59;18.40;99.90
1355;DHT22;671;48.972;9.276;2023-08-07T11:06:30;18.40;99.90
1355;DHT22;671;48.972;9.276;2023-08-07T11:09:03;18.50;99.90
1355;DHT22;671;48.972;9.276;2023-08-07T11:11:48;18.50;99.90
1355;DHT22;671;48.972;9.276;2023-08-07T11:14:17;18.50;99.90
1355;DHT22;671;48.972;9.276;2023-08-07T11:16:45;18.50;99.90
1355;DHT22;671;48.972;9.276;2023-08-07T11:19:13;18.70;99.90
1355;DHT22;671;48.972;9.276;2023-08-07T11:21:41;18.80;99.90
1355;DHT22;671;48.972;9.276;2023-08-07T11:24:09;18.80;99.90
1355;DHT22;671;48.972;9.276;2023-08-07T11:26:36;18.80;99.90
1355;DHT22;671;48.972;9.276;2023-08-07T11:29:02;18.80;99.90
1355;DHT22;671;48.972;9.276;2023-08-07T11:31:29;18.80;99.90
1355;DHT22;671;48.972;9.276;2023-08-07T11:33:57;18.70;99.90
1355;DHT22;671;48.972;9.276;2023-08-07T11:36:24;18.70;99.90
1355;DHT22;671;48.972;9.276;2023-08-07T11:38:51;18.70;99.90
1355;DHT22;671;48.972;9.276;2023-08-07T11:41:18;18.60;99.90
1355;DHT22;671;48.972;9.276;2023-08-07T11:43:45;18.70;99.90
1355;DHT22;671;48.972;9.276;2023-08-07T11:46:14;18.70;99.90
1355;DHT22;671;48.972;9.276;2023-08-07T11:48:43;18.70;99.90
1355;DHT22;671;48.972;9.276;2023-08-07T11:51:10;18.70;99.90
1355;DHT22;671;48.972;9.276;2023-08-07T11:53:39;18.90;99.90
1355;DHT22;671;48.972;9.276;2023-08-07T11:56:10;19.00;99.90
1355;DHT22;671;48.972;9.276;2023-08-07T11:58:42;19.00;99.90
1355;DHT22;671;48.972;9.276;2023-08-07T12:03:41;19.00;99.90
1355;DHT22;671;48.972;9.276;2023-08-07T12:06:09;19.10;99.90
1355;DHT22;671;48.972;9.276;2023-08-07T12:08:41;19.10;99.90
1355;DHT22;671;48.972;9.276;2023-08-07T12:11:09;19.30;99.90
1355;DHT22;671;48.972;9.276;2023-08-07T12:13:41;19.40;99.90
1355;DHT22;671;48.972;9.276;2023-08-07T12:16:08;19.50;99.90
1355;DHT22;671;48.972;9.276;2023-08-07T12:18:36;19.60;99.90
1355;DHT22;671;48.972;9.276;2023-08-07T12:21:06;19.70;99.90
1355;DHT22;671;48.972;9.276;2023-08-07T12:23:34;19.70;99.90
1355;DHT22;671;48.972;9.276;2023-08-07T12:26:01;19.50;99.90
1355;DHT22;671;48.972;9.276;2023-08-07T12:28:28;19.50;99.90
1355;DHT22;671;48.972;9.276;2023-08-07T12:30:54;19.40;99.90
1355;DHT22;671;48.972;9.276;2023-08-07T12:33:22;19.30;99.90
1355;DHT22;671;48.972;9.276;2023-08-07T12:35:49;19.20;99.90
1355;DHT22;671;48.972;9.276;2023-08-07T12:38:15;19.20;99.90
1355;DHT22;671;48.972;9.276;2023-08-07T12:40:43;19.20;99.90
1355;DHT22;671;48.972;9.276;2023-08-07T12:43:10;19.10;99.90
1355;DHT22;671;48.972;9.276;2023-08-07T12:45:37;18.90;99.90
1355;DHT22;671;48.972;9.276;2023-08-07T12:48:04;18.80;99.90
1355;DHT22;671;48.972;9.276;2023-08-07T12:50:31;18.80;99.90
1355;DHT22;671;48.972;9.276;2023-08-07T12:52:58;18.80;99.90
1355;DHT22;671;48.972;9.276;2023-08-07T12:55:25;18.90;99.90
1355;DHT22;671;48.972;9.276;2023-08-07T12:57:53;18.80;99.90
1355;DHT22;671;48.972;9.276;2023-08-07T13:00:20;18.70;99.90
1355;DHT22;671;48.972;9.276;2023-08-07T13:02:48;18.60;99.90
1355;DHT22;671;48.972;9.276;2023-08-07T13:05:15;18.50;99.90
1355;DHT22;671;48.972;9.276;2023-08-07T13:07:43;18.40;99.90
1355;DHT22;671;48.972;9.276;2023-08-07T13:10:11;18.20;99.90
1355;DHT22;671;48.972;9.276;2023-08-07T13:12:40;18.20;99.90
1355;DHT22;671;48.972;9.276;2023-08-07T13:15:09;18.20;99.90
1355;DHT22;671;48.972;9.276;2023-08-07T13:17:39;18.30;99.90
1355;DHT22;671;48.972;9.276;2023-08-07T13:20:07;18.40;99.90
1355;DHT22;671;48.972;9.276;2023-08-07T13:22:35;18.70;99.90
1355;DHT22;671;48.972;9.276;2023-08-07T13:25:01;18.80;99.90
1355;DHT22;671;48.972;9.276;2023-08-07T13:27:30;19.00;99.90
1355;DHT22;671;48.972;9.276;2023-08-07T13:29:57;19.40;99.90
1355;DHT22;671;48.972;9.276;2023-08-07T13:32:25;19.60;99.90
1355;DHT22;671;48.972;9.276;2023-08-07T13:34:52;19.80;99.90
1355;DHT22;671;48.972;9.276;2023-08-07T13:37:19;20.00;99.90
1355;DHT22;671;48.972;9.276;2023-08-07T13:39:45;20.00;99.90
1355;DHT22;671;48.972;9.276;2023-08-07T13:42:14;20.20;99.90
1355;DHT22;671;48.972;9.276;2023-08-07T13:44:41;20.30;99.90
1355;DHT22;671;48.972;9.276;2023-08-07T13:47:07;20.30;99.90
1355;DHT22;671;48.972;9.276;2023-08-07T13:49:34;20.20;99.90
1355;DHT22;671;48.972;9.276;2023-08-07T13:52:01;20.10;99.90
1355;DHT22;671;48.972;9.276;2023-08-07T13:54:28;20.10;99.90
1355;DHT22;671;48.972;9.276;2023-08-07T13:56:54;20.10;99.90
1355;DHT22;671;48.972;9.276;2023-08-07T13:59:21;20.20;99.90
1355;DHT22;671;48.972;9.276;2023-08-07T14:01:47;20.30;99.90
1355;DHT22;671;48.972;9.276;2023-08-07T14:04:14;20.30;99.90
1355;DHT22;671;48.972;9.276;2023-08-07T14:06:40;20.50;99.90
1355;DHT22;671;48.972;9.276;2023-08-07T14:09:10;20.50;99.90
1355;DHT22;671;48.972;9.276;2023-08-07T14:11:37;20.50;99.90
1355;DHT22;671;48.972;9.276;2023-08-07T14:14:04;20.50;99.90
1355;DHT22;671;48.972;9.276;2023-08-07T14:16:31;20.40;99.90
1355;DHT22;671;48.972;9.276;2023-08-07T14:18:57;20.30;99.90
1355;DHT22;671;48.972;9.276;2023-08-07T14:21:24;20.20;99.90
1355;DHT22;671;48.972;9.276;2023-08-07T14:23:51;20.10;99.90
1355;DHT22;671;48.972;9.276;2023-08-07T14:26:17;19.90;99.90
1355;DHT22;671;48.972;9.276;2023-08-07T14:28:45;19.70;99.90
1355;DHT22;671;48.972;9.276;2023-08-07T14:31:11;19.50;99.90
1355;DHT22;671;48.972;9.276;2023-08-07T14:33:38;19.30;99.90
1355;DHT22;671;48.972;9.276;2023-08-07T14:36:05;19.20;99.90
1355;DHT22;671;48.972;9.276;2023-08-07T14:38:31;19.10;99.90
1355;DHT22;671;48.972;9.276;2023-08-07T14:40:58;19.00;99.90
1355;DHT22;671;48.972;9.276;2023-08-07T14:43:29;19.00;99.90
1355;DHT22;671;48.972;9.276;2023-08-07T14:46:00;19.00;99.90
1355;DHT22;671;48.972;9.276;2023-08-07T14:48:27;19.20;99.90
1355;DHT22;671;48.972;9.276;2023-08-07T14:50:53;19.40;99.90
1355;DHT22;671;48.972;9.276;2023-08-07T14:53:21;19.60;99.90
1355;DHT22;671;48.972;9.276;2023-08-07T14:55:47;19.80;99.90
1355;DHT22;671;48.972;9.276;2023-08-07T14:58:14;20.00;99.90
1355;DHT22;671;48.972;9.276;2023-08-07T15:00:40;20.10;99.90
1355;DHT22;671;48.972;9.276;2023-08-07T15:03:07;20.10;99.90
1355;DHT22;671;48.972;9.276;2023-08-07T15:05:33;20.00;99.90
1355;DHT22;671;48.972;9.276;2023-08-07T15:08:00;19.90;99.90
1355;DHT22;671;48.972;9.276;2023-08-07T15:10:28;19.70;99.90
1355;DHT22;671;48.972;9.276;2023-08-07T15:12:54;19.70;99.90
1355;DHT22;671;48.972;9.276;2023-08-07T15:15:22;19.70;99.90
1355;DHT22;671;48.972;9.276;2023-08-07T15:17:48;20.00;99.90
1355;DHT22;671;48.972;9.276;2023-08-07T15:20:15;20.20;99.90
1355;DHT22;671;48.972;9.276;2023-08-07T15:22:41;20.40;99.90
1355;DHT22;671;48.972;9.276;2023-08-07T15:25:08;20.70;99.90
1355;DHT22;671;48.972;9.276;2023-08-07T15:27:35;20.70;99.90
1355;DHT22;671;48.972;9.276;2023-08-07T15:30:01;20.70;99.90
1355;DHT22;671;48.972;9.276;2023-08-07T15:32:28;20.70;99.90
1355;DHT22;671;48.972;9.276;2023-08-07T15:34:54;20.80;99.90
1355;DHT22;671;48.972;9.276;2023-08-07T15:37:21;20.90;99.90
1355;DHT22;671;48.972;9.276;2023-08-07T15:39:47;21.00;99.90
1355;DHT22;671;48.972;9.276;2023-08-07T15:42:14;21.10;99.90
1355;DHT22;671;48.972;9.276;2023-08-07T15:44:40;20.90;99.90
1355;DHT22;671;48.972;9.276;2023-08-07T15:47:07;20.70;99.90
1355;DHT22;671;48.972;9.276;2023-08-07T15:49:33;20.40;99.90
1355;DHT22;671;48.972;9.276;2023-08-07T15:52:00;20.20;99.90
1355;DHT22;671;48.972;9.276;2023-08-07T15:54:26;20.10;99.90
1355;DHT22;671;48.972;9.276;2023-08-07T15:56:53;20.10;99.90
1355;DHT22;671;48.972;9.276;2023-08-07T15:59:19;19.90;99.90
1355;DHT22;671;48.972;9.276;2023-08-07T16:01:46;19.90;99.90
1355;DHT22;671;48.972;9.276;2023-08-07T16:04:12;20.00;99.90
1355;DHT22;671;48.972;9.276;2023-08-07T16:06:39;20.10;99.90
1355;DHT22;671;48.972;9.276;2023-08-07T16:09:05;20.10;99.90
1355;DHT22;671;48.972;9.276;2023-08-07T16:11:32;20.20;99.90
1355;DHT22;671;48.972;9.276;2023-08-07T16:13:59;20.20;99.90
1355;DHT22;671;48.972;9.276;2023-08-07T16:16:25;20.20;99.90
1355;DHT22;671;48.972;9.276;2023-08-07T16:18:52;20.20;99.90
1355;DHT22;671;48.972;9.276;2023-08-07T16:21:18;20.20;99.90
1355;DHT22;671;48.972;9.276;2023-08-07T16:23:44;20.20;99.90
1355;DHT22;671;48.972;9.276;2023-08-07T16:26:11;20.20;99.90
1355;DHT22;671;48.972;9.276;2023-08-07T16:28:38;20.20;99.90
1355;DHT22;671;48.972;9.276;2023-08-07T16:31:04;20.30;99.90